sensor_id;sensor_type;location;lat;lon;timestamp;P1;durP1;ratioP1;P2;durP2;ratioP2
48268;SDS011;34088;52.232;5.196;2022-11-23T00:03:39;30.48;;;19.73;;
48268;SDS011;34088;52.232;5.196;2022-11-23T00:06:04;33.13;;;20.30;;
48268;SDS011;34088;52.232;5.196;2022-11-23T00:08:30;34.47;;;20.23;;
48268;SDS011;34088;52.232;5.196;2022-11-23T00:10:59;31.92;;;20.33;;
48268;SDS011;34088;52.232;5.196;2022-11-23T00:13:25;37.10;;;20.83;;
48268;SDS011;34088;52.232;5.196;2022-11-23T00:15:51;36.88;;;21.38;;
48268;SDS011;34088;52.232;5.196;2022-11-23T00:18:16;36.63;;;21.65;;
48268;SDS011;34088;52.232;5.196;2022-11-23T00:33:25;41.07;;;22.17;;
48268;SDS011;34088;52.232;5.196;2022-11-23T00:35:57;36.13;;;22.67;;
48268;SDS011;34088;52.232;5.196;2022-11-23T00:38:28;38.00;;;23.40;;
48268;SDS011;34088;52.232;5.196;2022-11-23T00:40:58;41.78;;;23.63;;
48268;SDS011;34088;52.232;5.196;2022-11-23T00:43:25;39.17;;;24.13;;
48268;SDS011;34088;52.232;5.196;2022-11-23T00:46:06;39.67;;;24.60;;
48268;SDS011;34088;52.232;5.196;2022-11-23T00:48:43;44.03;;;26.05;;
48268;SDS011;34088;52.232;5.196;2022-11-23T00:51:12;43.13;;;24.88;;
48268;SDS011;34088;52.232;5.196;2022-11-23T00:53:39;47.15;;;25.55;;
48268;SDS011;34088;52.232;5.196;2022-11-23T00:56:05;43.38;;;26.23;;
48268;SDS011;34088;52.232;5.196;2022-11-23T00:58:32;44.95;;;24.55;;
48268;SDS011;34088;52.232;5.196;2022-11-23T01:01:08;42.85;;;25.17;;
48268;SDS011;34088;52.232;5.196;2022-11-23T01:03:38;39.60;;;24.08;;
48268;SDS011;34088;52.232;5.196;2022-11-23T01:06:13;42.22;;;24.05;;
48268;SDS011;34088;52.232;5.196;2022-11-23T01:08:41;41.03;;;24.10;;
48268;SDS011;34088;52.232;5.196;2022-11-23T01:11:11;39.70;;;24.25;;
48268;SDS011;34088;52.232;5.196;2022-11-23T01:13:38;44.75;;;23.98;;
48268;SDS011;34088;52.232;5.196;2022-11-23T01:16:15;39.85;;;23.33;;
48268;SDS011;34088;52.232;5.196;2022-11-23T01:18:45;42.28;;;22.90;;
48268;SDS011;34088;52.232;5.196;2022-11-23T01:21:11;38.53;;;23.05;;
48268;SDS011;34088;52.232;5.196;2022-11-23T01:23:37;46.42;;;22.77;;
48268;SDS011;34088;52.232;5.196;2022-11-23T01:26:06;39.67;;;22.80;;
48268;SDS011;34088;52.232;5.196;2022-11-23T01:28:34;40.60;;;23.98;;
48268;SDS011;34088;52.232;5.196;2022-11-23T01:31:10;39.58;;;22.55;;
48268;SDS011;34088;52.232;5.196;2022-11-23T01:33:38;40.55;;;22.67;;
48268;SDS011;34088;52.232;5.196;2022-11-23T01:36:15;37.10;;;22.33;;
48268;SDS011;34088;52.232;5.196;2022-11-23T01:38:44;41.45;;;23.55;;
48268;SDS011;34088;52.232;5.196;2022-11-23T01:41:12;42.97;;;23.48;;
48268;SDS011;34088;52.232;5.196;2022-11-23T01:43:45;48.10;;;23.92;;
48268;SDS011;34088;52.232;5.196;2022-11-23T01:46:11;43.88;;;23.48;;
48268;SDS011;34088;52.232;5.196;2022-11-23T01:48:45;43.08;;;24.20;;
48268;SDS011;34088;52.232;5.196;2022-11-23T01:51:25;44.40;;;24.92;;
48268;SDS011;34088;52.232;5.196;2022-11-23T01:53:56;42.05;;;22.67;;
48268;SDS011;34088;52.232;5.196;2022-11-23T01:56:58;43.75;;;23.85;;
48268;SDS011;34088;52.232;5.196;2022-11-23T01:59:27;49.95;;;24.70;;
48268;SDS011;34088;52.232;5.196;2022-11-23T02:01:54;42.33;;;23.67;;
48268;SDS011;34088;52.232;5.196;2022-11-23T02:04:25;40.42;;;23.02;;
48268;SDS011;34088;52.232;5.196;2022-11-23T02:06:55;42.92;;;22.77;;
48268;SDS011;34088;52.232;5.196;2022-11-23T02:09:21;42.72;;;23.10;;
48268;SDS011;34088;52.232;5.196;2022-11-23T02:11:47;41.97;;;23.98;;
48268;SDS011;34088;52.232;5.196;2022-11-23T02:14:13;43.22;;;23.02;;
48268;SDS011;34088;52.232;5.196;2022-11-23T02:16:39;34.85;;;21.92;;
48268;SDS011;34088;52.232;5.196;2022-11-23T02:19:07;41.13;;;21.75;;
48268;SDS011;34088;52.232;5.196;2022-11-23T02:21:46;40.08;;;20.75;;
48268;SDS011;34088;52.232;5.196;2022-11-23T02:24:32;39.05;;;21.80;;
48268;SDS011;34088;52.232;5.196;2022-11-23T02:27:02;39.92;;;21.33;;
48268;SDS011;34088;52.232;5.196;2022-11-23T02:29:30;43.53;;;21.50;;
48268;SDS011;34088;52.232;5.196;2022-11-23T02:31:57;36.53;;;20.13;;
48268;SDS011;34088;52.232;5.196;2022-11-23T02:34:22;38.67;;;20.05;;
48268;SDS011;34088;52.232;5.196;2022-11-23T02:36:49;39.40;;;20.33;;
48268;SDS011;34088;52.232;5.196;2022-11-23T02:39:29;34.63;;;19.65;;
48268;SDS011;34088;52.232;5.196;2022-11-23T02:42:02;33.63;;;18.73;;
48268;SDS011;34088;52.232;5.196;2022-11-23T02:47:09;41.17;;;20.80;;
48268;SDS011;34088;52.232;5.196;2022-11-23T02:49:35;36.92;;;18.95;;
48268;SDS011;34088;52.232;5.196;2022-11-23T02:52:01;36.25;;;19.75;;
48268;SDS011;34088;52.232;5.196;2022-11-23T02:54:28;35.40;;;18.42;;
48268;SDS011;34088;52.232;5.196;2022-11-23T02:56:53;34.22;;;17.63;;
48268;SDS011;34088;52.232;5.196;2022-11-23T02:59:19;34.55;;;17.85;;
48268;SDS011;34088;52.232;5.196;2022-11-23T03:01:45;32.40;;;17.15;;
48268;SDS011;34088;52.232;5.196;2022-11-23T03:04:12;33.00;;;17.88;;
48268;SDS011;34088;52.232;5.196;2022-11-23T03:06:38;35.15;;;17.95;;
48268;SDS011;34088;52.232;5.196;2022-11-23T03:09:04;38.30;;;18.83;;
48268;SDS011;34088;52.232;5.196;2022-11-23T03:11:30;34.97;;;18.17;;
48268;SDS011;34088;52.232;5.196;2022-11-23T03:13:56;36.22;;;17.85;;
48268;SDS011;34088;52.232;5.196;2022-11-23T03:16:22;34.05;;;18.02;;
48268;SDS011;34088;52.232;5.196;2022-11-23T03:18:49;37.55;;;18.48;;
48268;SDS011;34088;52.232;5.196;2022-11-23T03:21:15;33.97;;;18.52;;
48268;SDS011;34088;52.232;5.196;2022-11-23T03:23:40;31.17;;;18.48;;
48268;SDS011;34088;52.232;5.196;2022-11-23T03:26:06;33.47;;;18.58;;
48268;SDS011;34088;52.232;5.196;2022-11-23T03:28:32;38.20;;;19.80;;
48268;SDS011;34088;52.232;5.196;2022-11-23T03:30:58;38.10;;;19.58;;
48268;SDS011;34088;52.232;5.196;2022-11-23T03:33:23;36.83;;;19.85;;
48268;SDS011;34088;52.232;5.196;2022-11-23T03:35:49;32.90;;;18.95;;
48268;SDS011;34088;52.232;5.196;2022-11-23T03:38:15;35.38;;;19.67;;
48268;SDS011;34088;52.232;5.196;2022-11-23T03:40:43;36.65;;;19.73;;
48268;SDS011;34088;52.232;5.196;2022-11-23T03:43:10;35.00;;;20.23;;
48268;SDS011;34088;52.232;5.196;2022-11-23T03:45:36;33.92;;;19.42;;
48268;SDS011;34088;52.232;5.196;2022-11-23T03:48:02;35.17;;;18.95;;
48268;SDS011;34088;52.232;5.196;2022-11-23T03:50:28;39.45;;;19.85;;
48268;SDS011;34088;52.232;5.196;2022-11-23T03:52:54;32.15;;;20.13;;
48268;SDS011;34088;52.232;5.196;2022-11-23T03:55:20;32.88;;;19.55;;
48268;SDS011;34088;52.232;5.196;2022-11-23T03:57:47;33.42;;;18.92;;
48268;SDS011;34088;52.232;5.196;2022-11-23T04:00:13;30.13;;;19.50;;
48268;SDS011;34088;52.232;5.196;2022-11-23T04:02:40;29.70;;;18.55;;
48268;SDS011;34088;52.232;5.196;2022-11-23T04:05:07;30.30;;;18.52;;
48268;SDS011;34088;52.232;5.196;2022-11-23T04:07:33;28.38;;;17.65;;
48268;SDS011;34088;52.232;5.196;2022-11-23T04:09:58;30.17;;;17.98;;
48268;SDS011;34088;52.232;5.196;2022-11-23T04:12:24;28.40;;;16.85;;
48268;SDS011;34088;52.232;5.196;2022-11-23T04:17:16;28.08;;;16.50;;
48268;SDS011;34088;52.232;5.196;2022-11-23T04:19:42;25.83;;;15.77;;
48268;SDS011;34088;52.232;5.196;2022-11-23T04:22:08;25.73;;;15.60;;
48268;SDS011;34088;52.232;5.196;2022-11-23T04:24:34;27.58;;;16.05;;
48268;SDS011;34088;52.232;5.196;2022-11-23T04:26:59;32.40;;;16.35;;
48268;SDS011;34088;52.232;5.196;2022-11-23T04:31:51;21.25;;;15.23;;
48268;SDS011;34088;52.232;5.196;2022-11-23T04:34:16;29.05;;;15.32;;
48268;SDS011;34088;52.232;5.196;2022-11-23T04:36:42;25.30;;;15.20;;
48268;SDS011;34088;52.232;5.196;2022-11-23T04:39:09;26.38;;;16.17;;
48268;SDS011;34088;52.232;5.196;2022-11-23T04:41:36;25.27;;;15.23;;
48268;SDS011;34088;52.232;5.196;2022-11-23T04:44:02;26.60;;;15.13;;
48268;SDS011;34088;52.232;5.196;2022-11-23T04:46:28;26.25;;;14.68;;
48268;SDS011;34088;52.232;5.196;2022-11-23T04:48:54;24.83;;;14.32;;
48268;SDS011;34088;52.232;5.196;2022-11-23T04:51:20;24.15;;;13.73;;
48268;SDS011;34088;52.232;5.196;2022-11-23T04:56:11;21.40;;;13.45;;
48268;SDS011;34088;52.232;5.196;2022-11-23T05:01:03;23.65;;;13.98;;
48268;SDS011;34088;52.232;5.196;2022-11-23T05:03:29;19.80;;;13.20;;
48268;SDS011;34088;52.232;5.196;2022-11-23T05:05:58;23.33;;;13.43;;
48268;SDS011;34088;52.232;5.196;2022-11-23T05:08:24;25.15;;;13.05;;
48268;SDS011;34088;52.232;5.196;2022-11-23T05:10:49;23.92;;;13.50;;
48268;SDS011;34088;52.232;5.196;2022-11-23T05:13:15;22.02;;;12.05;;
48268;SDS011;34088;52.232;5.196;2022-11-23T05:15:41;19.55;;;11.60;;
48268;SDS011;34088;52.232;5.196;2022-11-23T05:20:33;21.67;;;12.25;;
48268;SDS011;34088;52.232;5.196;2022-11-23T05:22:59;23.80;;;12.68;;
48268;SDS011;34088;52.232;5.196;2022-11-23T05:25:25;21.13;;;12.07;;
48268;SDS011;34088;52.232;5.196;2022-11-23T05:27:51;24.98;;;12.32;;
48268;SDS011;34088;52.232;5.196;2022-11-23T05:30:16;24.00;;;12.05;;
48268;SDS011;34088;52.232;5.196;2022-11-23T05:32:43;23.75;;;11.45;;
48268;SDS011;34088;52.232;5.196;2022-11-23T05:35:09;19.50;;;12.32;;
48268;SDS011;34088;52.232;5.196;2022-11-23T05:37:35;24.05;;;11.90;;
48268;SDS011;34088;52.232;5.196;2022-11-23T05:40:01;23.13;;;11.85;;
48268;SDS011;34088;52.232;5.196;2022-11-23T05:42:27;21.05;;;11.90;;
48268;SDS011;34088;52.232;5.196;2022-11-23T05:44:53;23.95;;;11.70;;
48268;SDS011;34088;52.232;5.196;2022-11-23T05:47:19;23.17;;;11.70;;
48268;SDS011;34088;52.232;5.196;2022-11-23T05:52:10;25.55;;;12.50;;
48268;SDS011;34088;52.232;5.196;2022-11-23T05:54:36;22.77;;;11.93;;
48268;SDS011;34088;52.232;5.196;2022-11-23T05:57:02;22.52;;;11.82;;
48268;SDS011;34088;52.232;5.196;2022-11-23T05:59:27;21.42;;;12.32;;
48268;SDS011;34088;52.232;5.196;2022-11-23T06:04:19;23.08;;;11.15;;
48268;SDS011;34088;52.232;5.196;2022-11-23T06:06:44;27.88;;;12.55;;
48268;SDS011;34088;52.232;5.196;2022-11-23T06:09:10;21.67;;;11.43;;
48268;SDS011;34088;52.232;5.196;2022-11-23T06:11:36;25.02;;;12.40;;
48268;SDS011;34088;52.232;5.196;2022-11-23T06:14:02;22.95;;;11.63;;
48268;SDS011;34088;52.232;5.196;2022-11-23T06:16:27;22.48;;;11.77;;
48268;SDS011;34088;52.232;5.196;2022-11-23T06:18:53;26.40;;;12.23;;
48268;SDS011;34088;52.232;5.196;2022-11-23T06:21:19;27.27;;;12.23;;
48268;SDS011;34088;52.232;5.196;2022-11-23T06:23:45;25.65;;;11.80;;
48268;SDS011;34088;52.232;5.196;2022-11-23T06:26:11;21.17;;;10.82;;
48268;SDS011;34088;52.232;5.196;2022-11-23T06:28:37;26.40;;;10.80;;
48268;SDS011;34088;52.232;5.196;2022-11-23T06:31:03;24.10;;;11.45;;
48268;SDS011;34088;52.232;5.196;2022-11-23T06:33:30;23.90;;;11.68;;
48268;SDS011;34088;52.232;5.196;2022-11-23T06:36:00;21.95;;;11.95;;
48268;SDS011;34088;52.232;5.196;2022-11-23T06:38:27;24.63;;;11.48;;
48268;SDS011;34088;52.232;5.196;2022-11-23T06:40:56;25.10;;;11.35;;
48268;SDS011;34088;52.232;5.196;2022-11-23T06:43:23;21.95;;;11.70;;
48268;SDS011;34088;52.232;5.196;2022-11-23T06:45:49;23.63;;;12.50;;
48268;SDS011;34088;52.232;5.196;2022-11-23T06:48:15;20.42;;;11.45;;
48268;SDS011;34088;52.232;5.196;2022-11-23T06:50:41;23.45;;;11.23;;
48268;SDS011;34088;52.232;5.196;2022-11-23T06:55:35;22.17;;;12.30;;
48268;SDS011;34088;52.232;5.196;2022-11-23T06:58:00;21.27;;;11.30;;
48268;SDS011;34088;52.232;5.196;2022-11-23T07:02:52;23.63;;;10.27;;
48268;SDS011;34088;52.232;5.196;2022-11-23T07:05:18;24.50;;;11.25;;
48268;SDS011;34088;52.232;5.196;2022-11-23T07:07:44;23.88;;;10.68;;
48268;SDS011;34088;52.232;5.196;2022-11-23T07:10:10;21.67;;;9.63;;
48268;SDS011;34088;52.232;5.196;2022-11-23T07:12:37;25.73;;;10.18;;
48268;SDS011;34088;52.232;5.196;2022-11-23T07:15:03;24.58;;;9.82;;
48268;SDS011;34088;52.232;5.196;2022-11-23T07:17:29;19.70;;;8.90;;
48268;SDS011;34088;52.232;5.196;2022-11-23T07:19:55;23.13;;;7.93;;
48268;SDS011;34088;52.232;5.196;2022-11-23T07:22:20;18.95;;;7.40;;
48268;SDS011;34088;52.232;5.196;2022-11-23T07:24:46;21.50;;;6.65;;
48268;SDS011;34088;52.232;5.196;2022-11-23T07:29:37;19.20;;;6.07;;
48268;SDS011;34088;52.232;5.196;2022-11-23T07:32:04;20.52;;;5.63;;
48268;SDS011;34088;52.232;5.196;2022-11-23T07:34:31;22.65;;;6.18;;
48268;SDS011;34088;52.232;5.196;2022-11-23T07:36:56;20.42;;;5.55;;
48268;SDS011;34088;52.232;5.196;2022-11-23T07:41:48;18.13;;;4.35;;
48268;SDS011;34088;52.232;5.196;2022-11-23T07:44:14;22.02;;;4.43;;
48268;SDS011;34088;52.232;5.196;2022-11-23T07:46:39;16.75;;;4.40;;
48268;SDS011;34088;52.232;5.196;2022-11-23T07:49:05;16.08;;;4.10;;
48268;SDS011;34088;52.232;5.196;2022-11-23T07:51:31;18.38;;;4.20;;
48268;SDS011;34088;52.232;5.196;2022-11-23T07:53:57;20.90;;;4.03;;
48268;SDS011;34088;52.232;5.196;2022-11-23T07:56:23;17.88;;;3.70;;
48268;SDS011;34088;52.232;5.196;2022-11-23T07:58:49;16.30;;;3.83;;
48268;SDS011;34088;52.232;5.196;2022-11-23T08:01:15;21.83;;;4.25;;
48268;SDS011;34088;52.232;5.196;2022-11-23T08:03:42;15.88;;;3.55;;
48268;SDS011;34088;52.232;5.196;2022-11-23T08:06:09;18.42;;;3.65;;
48268;SDS011;34088;52.232;5.196;2022-11-23T08:08:36;19.05;;;4.10;;
48268;SDS011;34088;52.232;5.196;2022-11-23T08:11:03;20.15;;;4.70;;
48268;SDS011;34088;52.232;5.196;2022-11-23T08:13:33;20.17;;;3.92;;
48268;SDS011;34088;52.232;5.196;2022-11-23T08:16:00;16.17;;;3.70;;
48268;SDS011;34088;52.232;5.196;2022-11-23T08:18:26;17.70;;;3.92;;
48268;SDS011;34088;52.232;5.196;2022-11-23T08:20:52;17.77;;;3.65;;
48268;SDS011;34088;52.232;5.196;2022-11-23T08:23:18;17.05;;;4.03;;
48268;SDS011;34088;52.232;5.196;2022-11-23T08:25:44;25.75;;;4.30;;
48268;SDS011;34088;52.232;5.196;2022-11-23T08:28:10;18.92;;;4.00;;
48268;SDS011;34088;52.232;5.196;2022-11-23T08:30:37;14.80;;;4.00;;
48268;SDS011;34088;52.232;5.196;2022-11-23T08:33:06;20.52;;;4.05;;
48268;SDS011;34088;52.232;5.196;2022-11-23T08:35:33;18.80;;;3.78;;
48268;SDS011;34088;52.232;5.196;2022-11-23T08:38:01;18.10;;;4.03;;
48268;SDS011;34088;52.232;5.196;2022-11-23T08:40:28;16.13;;;3.85;;
48268;SDS011;34088;52.232;5.196;2022-11-23T08:42:53;17.33;;;4.88;;
48268;SDS011;34088;52.232;5.196;2022-11-23T08:45:19;19.00;;;4.07;;
48268;SDS011;34088;52.232;5.196;2022-11-23T08:47:45;17.33;;;4.05;;
48268;SDS011;34088;52.232;5.196;2022-11-23T08:50:11;19.70;;;3.85;;
48268;SDS011;34088;52.232;5.196;2022-11-23T08:52:37;16.98;;;4.13;;
48268;SDS011;34088;52.232;5.196;2022-11-23T08:55:03;18.65;;;3.60;;
48268;SDS011;34088;52.232;5.196;2022-11-23T08:57:29;21.63;;;4.05;;
48268;SDS011;34088;52.232;5.196;2022-11-23T08:59:55;19.35;;;3.75;;
48268;SDS011;34088;52.232;5.196;2022-11-23T09:04:46;16.38;;;3.38;;
48268;SDS011;34088;52.232;5.196;2022-11-23T09:07:12;17.55;;;3.53;;
48268;SDS011;34088;52.232;5.196;2022-11-23T09:09:37;16.55;;;3.80;;
48268;SDS011;34088;52.232;5.196;2022-11-23T09:12:04;22.52;;;4.13;;
48268;SDS011;34088;52.232;5.196;2022-11-23T09:14:30;19.23;;;4.30;;
48268;SDS011;34088;52.232;5.196;2022-11-23T09:16:56;15.77;;;3.85;;
48268;SDS011;34088;52.232;5.196;2022-11-23T09:19:25;20.75;;;3.97;;
48268;SDS011;34088;52.232;5.196;2022-11-23T09:21:51;16.35;;;3.83;;
48268;SDS011;34088;52.232;5.196;2022-11-23T09:24:18;17.67;;;3.97;;
48268;SDS011;34088;52.232;5.196;2022-11-23T09:26:44;17.55;;;3.72;;
48268;SDS011;34088;52.232;5.196;2022-11-23T09:29:10;12.73;;;3.08;;
48268;SDS011;34088;52.232;5.196;2022-11-23T09:34:02;16.95;;;3.20;;
48268;SDS011;34088;52.232;5.196;2022-11-23T09:36:28;17.02;;;3.67;;
48268;SDS011;34088;52.232;5.196;2022-11-23T09:38:54;22.00;;;3.80;;
48268;SDS011;34088;52.232;5.196;2022-11-23T09:48:04;19.50;;;3.83;;
48268;SDS011;34088;52.232;5.196;2022-11-23T09:50:49;17.20;;;3.95;;
48268;SDS011;34088;52.232;5.196;2022-11-23T09:53:44;19.55;;;3.63;;
48268;SDS011;34088;52.232;5.196;2022-11-23T09:56:19;15.95;;;3.10;;
48268;SDS011;34088;52.232;5.196;2022-11-23T09:58:52;16.88;;;3.30;;
48268;SDS011;34088;52.232;5.196;2022-11-23T10:01:20;15.48;;;3.30;;
48268;SDS011;34088;52.232;5.196;2022-11-23T10:03:46;13.98;;;2.92;;
48268;SDS011;34088;52.232;5.196;2022-11-23T10:06:20;13.25;;;2.92;;
48268;SDS011;34088;52.232;5.196;2022-11-23T10:09:00;16.42;;;3.35;;
48268;SDS011;34088;52.232;5.196;2022-11-23T10:14:42;15.85;;;3.55;;
48268;SDS011;34088;52.232;5.196;2022-11-23T10:17:31;17.25;;;3.45;;
48268;SDS011;34088;52.232;5.196;2022-11-23T10:25:55;19.80;;;3.65;;
48268;SDS011;34088;52.232;5.196;2022-11-23T10:28:21;14.05;;;3.25;;
48268;SDS011;34088;52.232;5.196;2022-11-23T10:30:55;18.25;;;3.42;;
48268;SDS011;34088;52.232;5.196;2022-11-23T10:33:52;14.05;;;3.35;;
48268;SDS011;34088;52.232;5.196;2022-11-23T10:36:37;18.52;;;3.35;;
48268;SDS011;34088;52.232;5.196;2022-11-23T10:41:46;13.15;;;3.28;;
48268;SDS011;34088;52.232;5.196;2022-11-23T10:44:27;15.63;;;3.35;;
48268;SDS011;34088;52.232;5.196;2022-11-23T10:46:56;18.45;;;3.60;;
48268;SDS011;34088;52.232;5.196;2022-11-23T10:49:26;13.25;;;2.92;;
48268;SDS011;34088;52.232;5.196;2022-11-23T10:52:04;16.30;;;3.17;;
48268;SDS011;34088;52.232;5.196;2022-11-23T10:54:53;10.85;;;2.75;;
48268;SDS011;34088;52.232;5.196;2022-11-23T11:00:03;17.15;;;3.30;;
48268;SDS011;34088;52.232;5.196;2022-11-23T11:07:56;15.27;;;3.10;;
48268;SDS011;34088;52.232;5.196;2022-11-23T11:13:44;16.83;;;3.50;;
48268;SDS011;34088;52.232;5.196;2022-11-23T11:16:24;17.15;;;3.45;;
48268;SDS011;34088;52.232;5.196;2022-11-23T11:18:54;14.63;;;3.40;;
48268;SDS011;34088;52.232;5.196;2022-11-23T11:23:58;16.73;;;4.07;;
48268;SDS011;34088;52.232;5.196;2022-11-23T11:26:26;14.93;;;3.20;;
48268;SDS011;34088;52.232;5.196;2022-11-23T11:28:55;15.68;;;3.38;;
48268;SDS011;34088;52.232;5.196;2022-11-23T11:31:37;10.18;;;3.00;;
48268;SDS011;34088;52.232;5.196;2022-11-23T11:34:25;14.88;;;3.25;;
48268;SDS011;34088;52.232;5.196;2022-11-23T11:37:12;12.13;;;3.00;;
48268;SDS011;34088;52.232;5.196;2022-11-23T11:40:25;11.57;;;2.55;;
48268;SDS011;34088;52.232;5.196;2022-11-23T11:43:08;12.80;;;3.25;;
48268;SDS011;34088;52.232;5.196;2022-11-23T11:45:46;13.30;;;2.85;;
48268;SDS011;34088;52.232;5.196;2022-11-23T11:48:15;12.05;;;2.95;;
48268;SDS011;34088;52.232;5.196;2022-11-23T11:53:46;14.77;;;3.42;;
48268;SDS011;34088;52.232;5.196;2022-11-23T11:56:54;10.85;;;2.88;;
48268;SDS011;34088;52.232;5.196;2022-11-23T12:02:30;11.73;;;3.03;;
48268;SDS011;34088;52.232;5.196;2022-11-23T12:10:27;10.02;;;3.22;;
48268;SDS011;34088;52.232;5.196;2022-11-23T12:13:03;13.77;;;2.90;;
48268;SDS011;34088;52.232;5.196;2022-11-23T12:15:39;15.98;;;2.75;;
48268;SDS011;34088;52.232;5.196;2022-11-23T12:20:50;14.38;;;3.30;;
48268;SDS011;34088;52.232;5.196;2022-11-23T12:23:35;12.15;;;3.00;;
48268;SDS011;34088;52.232;5.196;2022-11-23T12:29:12;10.65;;;2.42;;
48268;SDS011;34088;52.232;5.196;2022-11-23T12:34:55;13.82;;;2.58;;
48268;SDS011;34088;52.232;5.196;2022-11-23T12:40:36;10.23;;;2.60;;
48268;SDS011;34088;52.232;5.196;2022-11-23T12:55:17;9.85;;;2.20;;
48268;SDS011;34088;52.232;5.196;2022-11-23T13:00:43;8.43;;;2.47;;
48268;SDS011;34088;52.232;5.196;2022-11-23T13:09:00;7.87;;;1.90;;
48268;SDS011;34088;52.232;5.196;2022-11-23T13:11:47;9.45;;;2.30;;
48268;SDS011;34088;52.232;5.196;2022-11-23T13:17:57;9.52;;;2.38;;
48268;SDS011;34088;52.232;5.196;2022-11-23T13:32:34;9.93;;;2.20;;
48268;SDS011;34088;52.232;5.196;2022-11-23T13:35:19;15.15;;;2.97;;
48268;SDS011;34088;52.232;5.196;2022-11-23T13:40:37;12.05;;;2.30;;
48268;SDS011;34088;52.232;5.196;2022-11-23T13:46:08;14.70;;;2.92;;
48268;SDS011;34088;52.232;5.196;2022-11-23T13:48:48;6.90;;;2.00;;
48268;SDS011;34088;52.232;5.196;2022-11-23T13:54:00;12.40;;;2.63;;
48268;SDS011;34088;52.232;5.196;2022-11-23T13:56:43;17.95;;;3.08;;
48268;SDS011;34088;52.232;5.196;2022-11-23T14:04:34;12.45;;;2.50;;
48268;SDS011;34088;52.232;5.196;2022-11-23T14:10:04;10.30;;;2.28;;
48268;SDS011;34088;52.232;5.196;2022-11-23T14:12:56;12.20;;;2.75;;
48268;SDS011;34088;52.232;5.196;2022-11-23T14:15:30;14.60;;;2.53;;
48268;SDS011;34088;52.232;5.196;2022-11-23T14:18:17;10.65;;;2.70;;
48268;SDS011;34088;52.232;5.196;2022-11-23T14:23:45;8.32;;;2.53;;
48268;SDS011;34088;52.232;5.196;2022-11-23T14:35:27;8.43;;;2.37;;
48268;SDS011;34088;52.232;5.196;2022-11-23T14:38:31;12.05;;;2.20;;
48268;SDS011;34088;52.232;5.196;2022-11-23T14:43:39;8.32;;;2.08;;
48268;SDS011;34088;52.232;5.196;2022-11-23T14:46:12;8.82;;;2.00;;
48268;SDS011;34088;52.232;5.196;2022-11-23T14:48:44;9.20;;;2.30;;
48268;SDS011;34088;52.232;5.196;2022-11-23T14:51:17;11.00;;;2.70;;
48268;SDS011;34088;52.232;5.196;2022-11-23T14:53:49;5.50;;;1.98;;
48268;SDS011;34088;52.232;5.196;2022-11-23T14:56:21;5.10;;;2.00;;
48268;SDS011;34088;52.232;5.196;2022-11-23T14:59:01;7.25;;;2.10;;
48268;SDS011;34088;52.232;5.196;2022-11-23T15:01:39;10.25;;;2.47;;
48268;SDS011;34088;52.232;5.196;2022-11-23T15:04:17;9.63;;;2.22;;
48268;SDS011;34088;52.232;5.196;2022-11-23T15:06:52;8.65;;;2.63;;
48268;SDS011;34088;52.232;5.196;2022-11-23T15:12:24;8.10;;;1.90;;
48268;SDS011;34088;52.232;5.196;2022-11-23T15:14:52;7.65;;;2.08;;
48268;SDS011;34088;52.232;5.196;2022-11-23T15:17:21;7.40;;;2.20;;
48268;SDS011;34088;52.232;5.196;2022-11-23T15:19:57;6.20;;;2.50;;
48268;SDS011;34088;52.232;5.196;2022-11-23T15:22:25;8.73;;;2.00;;
48268;SDS011;34088;52.232;5.196;2022-11-23T15:24:52;8.30;;;2.40;;
48268;SDS011;34088;52.232;5.196;2022-11-23T15:27:25;5.72;;;2.13;;
48268;SDS011;34088;52.232;5.196;2022-11-23T15:29:55;7.78;;;2.50;;
48268;SDS011;34088;52.232;5.196;2022-11-23T15:32:27;9.50;;;2.53;;
48268;SDS011;34088;52.232;5.196;2022-11-23T15:34:55;9.23;;;2.78;;
48268;SDS011;34088;52.232;5.196;2022-11-23T15:37:24;10.90;;;3.13;;
48268;SDS011;34088;52.232;5.196;2022-11-23T15:39:50;11.20;;;2.60;;
48268;SDS011;34088;52.232;5.196;2022-11-23T15:42:18;8.57;;;2.70;;
48268;SDS011;34088;52.232;5.196;2022-11-23T15:44:46;8.10;;;2.58;;
48268;SDS011;34088;52.232;5.196;2022-11-23T15:47:19;5.40;;;2.20;;
48268;SDS011;34088;52.232;5.196;2022-11-23T15:49:50;8.95;;;2.75;;
48268;SDS011;34088;52.232;5.196;2022-11-23T15:52:16;4.78;;;2.40;;
48268;SDS011;34088;52.232;5.196;2022-11-23T15:54:43;8.85;;;3.10;;
48268;SDS011;34088;52.232;5.196;2022-11-23T15:57:12;7.68;;;2.83;;
48268;SDS011;34088;52.232;5.196;2022-11-23T15:59:54;10.52;;;2.92;;
48268;SDS011;34088;52.232;5.196;2022-11-23T16:02:26;7.88;;;2.72;;
48268;SDS011;34088;52.232;5.196;2022-11-23T16:05:36;8.02;;;2.90;;
48268;SDS011;34088;52.232;5.196;2022-11-23T16:10:21;10.18;;;3.72;;
48268;SDS011;34088;52.232;5.196;2022-11-23T16:12:52;9.90;;;3.20;;
48268;SDS011;34088;52.232;5.196;2022-11-23T16:15:31;8.35;;;3.08;;
48268;SDS011;34088;52.232;5.196;2022-11-23T16:18:14;8.70;;;3.40;;
48268;SDS011;34088;52.232;5.196;2022-11-23T16:20:55;8.48;;;3.30;;
48268;SDS011;34088;52.232;5.196;2022-11-23T16:23:25;8.20;;;3.28;;
48268;SDS011;34088;52.232;5.196;2022-11-23T16:26:08;8.43;;;3.35;;
48268;SDS011;34088;52.232;5.196;2022-11-23T16:28:35;9.77;;;3.67;;
48268;SDS011;34088;52.232;5.196;2022-11-23T16:31:02;6.53;;;3.08;;
48268;SDS011;34088;52.232;5.196;2022-11-23T16:33:28;7.20;;;3.50;;
48268;SDS011;34088;52.232;5.196;2022-11-23T16:35:54;10.77;;;3.65;;
48268;SDS011;34088;52.232;5.196;2022-11-23T16:38:20;12.88;;;4.25;;
48268;SDS011;34088;52.232;5.196;2022-11-23T16:40:46;8.25;;;4.05;;
48268;SDS011;34088;52.232;5.196;2022-11-23T16:43:13;11.02;;;5.00;;
48268;SDS011;34088;52.232;5.196;2022-11-23T16:45:41;7.55;;;4.50;;
48268;SDS011;34088;52.232;5.196;2022-11-23T16:48:34;11.95;;;5.00;;
48268;SDS011;34088;52.232;5.196;2022-11-23T16:51:07;14.00;;;6.13;;
48268;SDS011;34088;52.232;5.196;2022-11-23T16:53:35;9.93;;;5.25;;
48268;SDS011;34088;52.232;5.196;2022-11-23T16:56:01;9.50;;;5.18;;
48268;SDS011;34088;52.232;5.196;2022-11-23T16:58:32;11.98;;;5.88;;
48268;SDS011;34088;52.232;5.196;2022-11-23T17:00:59;10.80;;;5.55;;
48268;SDS011;34088;52.232;5.196;2022-11-23T17:03:26;10.77;;;6.28;;
48268;SDS011;34088;52.232;5.196;2022-11-23T17:05:52;11.02;;;7.03;;
48268;SDS011;34088;52.232;5.196;2022-11-23T17:08:17;10.80;;;7.13;;
48268;SDS011;34088;52.232;5.196;2022-11-23T17:10:43;12.13;;;7.72;;
48268;SDS011;34088;52.232;5.196;2022-11-23T17:13:15;12.40;;;8.00;;
48268;SDS011;34088;52.232;5.196;2022-11-23T17:15:48;12.85;;;8.68;;
48268;SDS011;34088;52.232;5.196;2022-11-23T17:18:14;12.75;;;8.75;;
48268;SDS011;34088;52.232;5.196;2022-11-23T17:20:41;13.23;;;8.85;;
48268;SDS011;34088;52.232;5.196;2022-11-23T17:23:07;13.82;;;9.65;;
48268;SDS011;34088;52.232;5.196;2022-11-23T17:25:33;13.00;;;9.70;;
48268;SDS011;34088;52.232;5.196;2022-11-23T17:27:59;15.23;;;9.68;;
48268;SDS011;34088;52.232;5.196;2022-11-23T17:30:26;14.88;;;10.20;;
48268;SDS011;34088;52.232;5.196;2022-11-23T17:32:52;16.67;;;10.80;;
48268;SDS011;34088;52.232;5.196;2022-11-23T17:35:18;13.88;;;10.38;;
48268;SDS011;34088;52.232;5.196;2022-11-23T17:37:44;14.35;;;11.23;;
48268;SDS011;34088;52.232;5.196;2022-11-23T17:40:14;14.65;;;10.35;;
48268;SDS011;34088;52.232;5.196;2022-11-23T17:42:41;14.75;;;10.00;;
48268;SDS011;34088;52.232;5.196;2022-11-23T17:45:07;17.98;;;11.73;;